sensor_id;sensor_type;location;lat;lon;timestamp;pressure;altitude;pressure_sealevel;temperature;humidity
57234;BME280;43090;52.604;13.318;2023-01-28T00:00:35;102189.19;;;-1.36;100.00
57234;BME280;43090;52.604;13.318;2023-01-28T00:03:02;102139.06;;;-2.22;100.00
57234;BME280;43090;52.604;13.318;2023-01-28T00:05:28;102187.41;;;-1.55;100.00
57234;BME280;43090;52.604;13.318;2023-01-28T00:07:55;102157.44;;;-2.16;100.00
57234;BME280;43090;52.604;13.318;2023-01-28T00:10:23;102189.94;;;-1.86;100.00
57234;BME280;43090;52.604;13.318;2023-01-28T00:12:49;102197.94;;;-1.52;100.00
57234;BME280;43090;52.604;13.318;2023-01-28T00:15:16;102175.00;;;-1.98;100.00
57234;BME280;43090;52.604;13.318;2023-01-28T00:17:43;102182.19;;;-1.52;100.00
57234;BME280;43090;52.604;13.318;2023-01-28T00:20:09;102197.06;;;-1.49;100.00
57234;BME280;43090;52.604;13.318;2023-01-28T00:22:36;102176.88;;;-1.64;100.00
57234;BME280;43090;52.604;13.318;2023-01-28T00:25:02;102204.97;;;-1.34;100.00
57234;BME280;43090;52.604;13.318;2023-01-28T00:27:29;102199.66;;;-1.54;100.00
57234;BME280;43090;52.604;13.318;2023-01-28T00:29:56;102173.34;;;-1.76;100.00
57234;BME280;43090;52.604;13.318;2023-01-28T00:32:22;102178.56;;;-1.85;100.00
57234;BME280;43090;52.604;13.318;2023-01-28T00:34:49;102205.72;;;-1.78;100.00
57234;BME280;43090;52.604;13.318;2023-01-28T00:37:15;102175.09;;;-1.79;100.00
57234;BME280;43090;52.604;13.318;2023-01-28T00:39:42;102209.31;;;-1.53;100.00
57234;BME280;43090;52.604;13.318;2023-01-28T00:42:08;102182.16;;;-1.57;100.00
57234;BME280;43090;52.604;13.318;2023-01-28T00:44:34;102202.34;;;-1.34;100.00
57234;BME280;43090;52.604;13.318;2023-01-28T00:47:01;102177.78;;;-1.47;100.00
57234;BME280;43090;52.604;13.318;2023-01-28T00:49:28;102210.22;;;-1.36;100.00
57234;BME280;43090;52.604;13.318;2023-01-28T00:51:54;102205.88;;;-1.24;100.00
57234;BME280;43090;52.604;13.318;2023-01-28T00:54:21;102200.53;;;-1.55;100.00
57234;BME280;43090;52.604;13.318;2023-01-28T00:56:47;102212.84;;;-1.34;100.00
57234;BME280;43090;52.604;13.318;2023-01-28T00:59:14;102169.94;;;-1.22;100.00
57234;BME280;43090;52.604;13.318;2023-01-28T01:01:40;102212.91;;;-1.12;100.00
57234;BME280;43090;52.604;13.318;2023-01-28T01:04:07;102201.50;;;-1.14;100.00
57234;BME280;43090;52.604;13.318;2023-01-28T01:06:35;102213.78;;;-0.86;100.00
57234;BME280;43090;52.604;13.318;2023-01-28T01:09:05;102199.75;;;-0.98;98.74
57234;BME280;43090;52.604;13.318;2023-01-28T01:11:34;102184.84;;;-0.84;98.29
57234;BME280;43090;52.604;13.318;2023-01-28T01:14:01;102208.50;;;-0.62;97.70
57234;BME280;43090;52.604;13.318;2023-01-28T01:16:31;102212.00;;;-0.51;97.27
57234;BME280;43090;52.604;13.318;2023-01-28T01:18:58;102204.16;;;-0.82;96.19
57234;BME280;43090;52.604;13.318;2023-01-28T01:21:27;102211.13;;;-0.50;96.08
57234;BME280;43090;52.604;13.318;2023-01-28T01:23:54;102183.97;;;-0.74;94.44
57234;BME280;43090;52.604;13.318;2023-01-28T01:26:21;102204.13;;;-0.93;97.83
57234;BME280;43090;52.604;13.318;2023-01-28T01:28:49;102204.13;;;-0.96;99.72
57234;BME280;43090;52.604;13.318;2023-01-28T01:31:19;102200.63;;;-0.78;99.39
57234;BME280;43090;52.604;13.318;2023-01-28T01:33:47;102188.34;;;-1.02;100.00
57234;BME280;43090;52.604;13.318;2023-01-28T01:36:15;102209.41;;;-0.90;100.00
57234;BME280;43090;52.604;13.318;2023-01-28T01:38:42;102184.88;;;-0.96;100.00
57234;BME280;43090;52.604;13.318;2023-01-28T01:41:19;102221.66;;;-0.89;100.00
57234;BME280;43090;52.604;13.318;2023-01-28T01:43:51;102222.53;;;-0.67;100.00
57234;BME280;43090;52.604;13.318;2023-01-28T01:46:35;102213.75;;;-0.56;97.79
57234;BME280;43090;52.604;13.318;2023-01-28T01:49:19;102207.63;;;-0.63;97.94
57234;BME280;43090;52.604;13.318;2023-01-28T01:51:49;102227.81;;;-0.88;98.80
57234;BME280;43090;52.604;13.318;2023-01-28T01:54:20;102171.69;;;-1.29;100.00
57234;BME280;43090;52.604;13.318;2023-01-28T01:56:49;102184.84;;;-0.72;99.42
57234;BME280;43090;52.604;13.318;2023-01-28T01:59:27;102226.03;;;-0.68;96.98
57234;BME280;43090;52.604;13.318;2023-01-28T02:01:55;102218.16;;;-0.97;98.91
57234;BME280;43090;52.604;13.318;2023-01-28T02:04:26;102213.78;;;-0.70;98.76
57234;BME280;43090;52.604;13.318;2023-01-28T02:06:55;102195.34;;;-1.09;99.12
57234;BME280;43090;52.604;13.318;2023-01-28T02:09:28;102211.13;;;-0.79;98.09
57234;BME280;43090;52.604;13.318;2023-01-28T02:14:41;102226.91;;;-0.72;99.04
57234;BME280;43090;52.604;13.318;2023-01-28T02:17:09;102211.16;;;-0.84;97.94
57234;BME280;43090;52.604;13.318;2023-01-28T02:19:39;102207.66;;;-0.91;99.01
57234;BME280;43090;52.604;13.318;2023-01-28T02:22:18;102209.34;;;-0.40;97.02
57234;BME280;43090;52.604;13.318;2023-01-28T02:30:39;102226.03;;;-0.77;99.98
57234;BME280;43090;52.604;13.318;2023-01-28T02:33:13;102214.66;;;-0.71;99.62
57234;BME280;43090;52.604;13.318;2023-01-28T02:35:47;102199.72;;;-0.60;98.47
57234;BME280;43090;52.604;13.318;2023-01-28T02:38:28;102201.53;;;-0.82;97.87
57234;BME280;43090;52.604;13.318;2023-01-28T02:41:03;102219.94;;;-0.90;99.11
57234;BME280;43090;52.604;13.318;2023-01-28T02:43:40;102224.31;;;-0.84;99.57
57234;BME280;43090;52.604;13.318;2023-01-28T02:49:13;102200.63;;;-0.72;99.03
57234;BME280;43090;52.604;13.318;2023-01-28T02:54:41;102229.56;;;-0.65;100.00
57234;BME280;43090;52.604;13.318;2023-01-28T02:57:19;102224.28;;;-0.62;100.00
57234;BME280;43090;52.604;13.318;2023-01-28T03:00:00;102218.16;;;-0.72;98.03
57234;BME280;43090;52.604;13.318;2023-01-28T03:02:36;102218.19;;;-0.75;99.21
57234;BME280;43090;52.604;13.318;2023-01-28T03:05:20;102198.00;;;-1.06;99.03
57234;BME280;43090;52.604;13.318;2023-01-28T03:07:48;102208.53;;;-0.75;100.00
57234;BME280;43090;52.604;13.318;2023-01-28T03:10:20;102205.88;;;-0.67;97.93
57234;BME280;43090;52.604;13.318;2023-01-28T03:12:51;102190.09;;;-0.89;97.46
57234;BME280;43090;52.604;13.318;2023-01-28T03:15:40;102226.91;;;-0.62;97.53
57234;BME280;43090;52.604;13.318;2023-01-28T03:18:31;102212.03;;;-0.79;98.10
57234;BME280;43090;52.604;13.318;2023-01-28T03:21:19;102221.66;;;-0.73;99.15
57234;BME280;43090;52.604;13.318;2023-01-28T03:24:09;102240.09;;;-0.61;98.70
57234;BME280;43090;52.604;13.318;2023-01-28T03:27:02;102228.66;;;-0.68;97.36
57234;BME280;43090;52.604;13.318;2023-01-28T03:29:52;102219.00;;;-0.53;96.31
57234;BME280;43090;52.604;13.318;2023-01-28T03:32:39;102224.28;;;-0.65;97.16
57234;BME280;43090;52.604;13.318;2023-01-28T03:35:29;102227.81;;;-0.60;97.46
57234;BME280;43090;52.604;13.318;2023-01-28T03:38:16;102223.44;;;-0.72;96.18
57234;BME280;43090;52.604;13.318;2023-01-28T03:40:50;102215.50;;;-0.49;96.69
57234;BME280;43090;52.604;13.318;2023-01-28T03:43:17;102214.63;;;-0.43;94.96
57234;BME280;43090;52.604;13.318;2023-01-28T03:45:43;102225.16;;;-0.42;95.38
57234;BME280;43090;52.604;13.318;2023-01-28T03:48:11;102226.03;;;-0.58;95.60
57234;BME280;43090;52.604;13.318;2023-01-28T03:50:39;102208.50;;;-0.59;96.98
57234;BME280;43090;52.604;13.318;2023-01-28T03:53:05;102212.88;;;-0.51;96.54
57234;BME280;43090;52.604;13.318;2023-01-28T03:55:42;102231.28;;;-0.35;96.73
57234;BME280;43090;52.604;13.318;2023-01-28T03:58:10;102219.91;;;-0.43;96.19
57234;BME280;43090;52.604;13.318;2023-01-28T04:00:37;102185.72;;;-0.67;95.42
57234;BME280;43090;52.604;13.318;2023-01-28T04:03:08;102218.13;;;-0.38;96.78
57234;BME280;43090;52.604;13.318;2023-01-28T04:05:46;102184.84;;;-0.67;97.29
57234;BME280;43090;52.604;13.318;2023-01-28T04:08:22;102218.13;;;-0.35;96.47
57234;BME280;43090;52.604;13.318;2023-01-28T04:10:50;102206.72;;;-0.56;96.60
57234;BME280;43090;52.604;13.318;2023-01-28T04:13:16;102219.91;;;-0.57;98.62
57234;BME280;43090;52.604;13.318;2023-01-28T04:15:46;102225.16;;;-0.57;98.99
57234;BME280;43090;52.604;13.318;2023-01-28T04:18:13;102189.22;;;-0.64;98.69
57234;BME280;43090;52.604;13.318;2023-01-28T04:20:40;102203.25;;;-0.50;97.22
57234;BME280;43090;52.604;13.318;2023-01-28T04:23:06;102223.38;;;-0.27;97.28
57234;BME280;43090;52.604;13.318;2023-01-28T04:25:33;102216.38;;;-0.53;97.50
57234;BME280;43090;52.604;13.318;2023-01-28T04:27:59;102219.84;;;-0.20;96.27
57234;BME280;43090;52.604;13.318;2023-01-28T04:30:26;102206.75;;;-0.53;97.06
57234;BME280;43090;52.604;13.318;2023-01-28T04:32:53;102214.59;;;-0.37;96.53
57234;BME280;43090;52.604;13.318;2023-01-28T04:35:20;102231.28;;;-0.40;97.59
57234;BME280;43090;52.604;13.318;2023-01-28T04:37:46;102221.66;;;-0.64;100.00
57234;BME280;43090;52.604;13.318;2023-01-28T04:40:12;102232.19;;;-0.64;99.63
57234;BME280;43090;52.604;13.318;2023-01-28T04:42:39;102206.78;;;-0.82;99.09
57234;BME280;43090;52.604;13.318;2023-01-28T04:45:06;102169.97;;;-0.88;99.54
57234;BME280;43090;52.604;13.318;2023-01-28T04:47:33;102219.91;;;-0.54;97.82
57234;BME280;43090;52.604;13.318;2023-01-28T04:49:59;102193.59;;;-0.45;97.13
57234;BME280;43090;52.604;13.318;2023-01-28T04:52:25;102214.63;;;-0.34;97.10
57234;BME280;43090;52.604;13.318;2023-01-28T04:54:52;102214.59;;;-0.29;97.81
57234;BME280;43090;52.604;13.318;2023-01-28T04:57:18;102204.06;;;-0.31;96.51
57234;BME280;43090;52.604;13.318;2023-01-28T04:59:45;102179.53;;;-0.33;96.95
57234;BME280;43090;52.604;13.318;2023-01-28T05:02:11;102194.44;;;-0.49;96.40
57234;BME280;43090;52.604;13.318;2023-01-28T05:04:37;102208.47;;;-0.24;97.37
57234;BME280;43090;52.604;13.318;2023-01-28T05:07:04;102226.03;;;-0.44;98.56
57234;BME280;43090;52.604;13.318;2023-01-28T05:09:30;102202.38;;;-0.63;100.00
57234;BME280;43090;52.604;13.318;2023-01-28T05:11:57;102242.69;;;-0.31;99.85
57234;BME280;43090;52.604;13.318;2023-01-28T05:14:23;102197.09;;;-0.61;99.99
57234;BME280;43090;52.604;13.318;2023-01-28T05:16:50;102220.78;;;-0.47;100.00
57234;BME280;43090;52.604;13.318;2023-01-28T05:19:19;102241.75;;;-0.15;98.24
57234;BME280;43090;52.604;13.318;2023-01-28T05:21:46;102230.44;;;-0.62;98.81
57234;BME280;43090;52.604;13.318;2023-01-28T05:24:12;102247.03;;;-0.18;99.33
57234;BME280;43090;52.604;13.318;2023-01-28T05:26:39;102240.97;;;-0.53;97.73
57234;BME280;43090;52.604;13.318;2023-01-28T05:29:06;102225.19;;;-0.54;97.96
57234;BME280;43090;52.604;13.318;2023-01-28T05:31:32;102240.94;;;-0.48;99.01
57234;BME280;43090;52.604;13.318;2023-01-28T05:33:59;102245.31;;;-0.44;99.08
57234;BME280;43090;52.604;13.318;2023-01-28T05:36:25;102237.41;;;-0.22;98.47
57234;BME280;43090;52.604;13.318;2023-01-28T05:38:52;102233.03;;;-0.37;97.54
57234;BME280;43090;52.604;13.318;2023-01-28T05:41:18;102246.19;;;-0.34;96.87
57234;BME280;43090;52.604;13.318;2023-01-28T05:43:45;102225.09;;;-0.14;96.19
57234;BME280;43090;52.604;13.318;2023-01-28T05:46:11;102249.69;;;-0.20;95.76
57234;BME280;43090;52.604;13.318;2023-01-28T05:48:37;102231.28;;;-0.38;96.11
57234;BME280;43090;52.604;13.318;2023-01-28T05:51:05;102230.34;;;-0.12;96.19
57234;BME280;43090;52.604;13.318;2023-01-28T05:53:31;102251.47;;;-0.45;96.45
57234;BME280;43090;52.604;13.318;2023-01-28T05:55:57;102241.81;;;-0.37;97.04
57234;BME280;43090;52.604;13.318;2023-01-28T05:58:24;102254.00;;;-0.02;96.62
57234;BME280;43090;52.604;13.318;2023-01-28T06:00:54;102212.00;;;-0.36;95.63
57234;BME280;43090;52.604;13.318;2023-01-28T06:03:21;102249.69;;;-0.24;95.28
57234;BME280;43090;52.604;13.318;2023-01-28T06:05:48;102220.75;;;-0.37;95.35
57234;BME280;43090;52.604;13.318;2023-01-28T06:08:14;102236.56;;;-0.30;96.53
57234;BME280;43090;52.604;13.318;2023-01-28T06:10:41;102225.09;;;-0.28;96.05
57234;BME280;43090;52.604;13.318;2023-01-28T06:13:07;102237.34;;;-0.07;95.02
57234;BME280;43090;52.604;13.318;2023-01-28T06:15:33;102231.25;;;-0.26;93.10
57234;BME280;43090;52.604;13.318;2023-01-28T06:18:00;102251.44;;;-0.14;93.42
57234;BME280;43090;52.604;13.318;2023-01-28T06:20:27;102249.69;;;-0.26;94.19
57234;BME280;43090;52.604;13.318;2023-01-28T06:22:53;102253.16;;;-0.08;94.27
57234;BME280;43090;52.604;13.318;2023-01-28T06:25:19;102266.34;;;-0.21;95.92
57234;BME280;43090;52.604;13.318;2023-01-28T06:27:46;102234.78;;;-0.36;95.34
57234;BME280;43090;52.604;13.318;2023-01-28T06:30:12;102246.13;;;-0.11;94.94
57234;BME280;43090;52.604;13.318;2023-01-28T06:32:39;102239.19;;;-0.29;92.89
57234;BME280;43090;52.604;13.318;2023-01-28T06:35:06;102248.81;;;-0.37;93.56
57234;BME280;43090;52.604;13.318;2023-01-28T06:37:34;102262.88;;;-0.35;94.46
57234;BME280;43090;52.604;13.318;2023-01-28T06:40:01;102251.44;;;-0.14;93.65
57234;BME280;43090;52.604;13.318;2023-01-28T06:42:28;102242.69;;;-0.38;95.00
57234;BME280;43090;52.604;13.318;2023-01-28T06:44:54;102269.81;;;0.02;95.69
57234;BME280;43090;52.604;13.318;2023-01-28T06:47:20;102241.78;;;-0.23;94.63
57234;BME280;43090;52.604;13.318;2023-01-28T06:49:47;102240.94;;;-0.26;95.48
57234;BME280;43090;52.604;13.318;2023-01-28T06:52:13;102261.06;;;-0.10;93.84
57234;BME280;43090;52.604;13.318;2023-01-28T06:54:40;102254.88;;;0.08;93.46
57234;BME280;43090;52.604;13.318;2023-01-28T06:57:06;102247.03;;;-0.12;92.55
57234;BME280;43090;52.604;13.318;2023-01-28T06:59:33;102251.44;;;-0.31;92.85
57234;BME280;43090;52.604;13.318;2023-01-28T07:01:59;102274.16;;;0.18;93.27
57234;BME280;43090;52.604;13.318;2023-01-28T07:04:25;102268.97;;;-0.04;92.88
57234;BME280;43090;52.604;13.318;2023-01-28T07:06:52;102283.00;;;0.03;93.38
57234;BME280;43090;52.604;13.318;2023-01-28T07:09:18;102270.75;;;-0.18;93.36
57234;BME280;43090;52.604;13.318;2023-01-28T07:11:45;102285.59;;;0.14;92.34
57234;BME280;43090;52.604;13.318;2023-01-28T07:14:11;102264.59;;;-0.23;86.18
57234;BME280;43090;52.604;13.318;2023-01-28T07:16:38;102273.34;;;-0.09;85.06
57234;BME280;43090;52.604;13.318;2023-01-28T07:19:04;102250.53;;;-0.10;85.65
57234;BME280;43090;52.604;13.318;2023-01-28T07:21:31;102247.81;;;0.24;85.82
57234;BME280;43090;52.604;13.318;2023-01-28T07:23:57;102217.22;;;-0.15;82.98
57234;BME280;43090;52.604;13.318;2023-01-28T07:26:24;102273.22;;;0.36;86.56
57234;BME280;43090;52.604;13.318;2023-01-28T07:28:53;102256.66;;;-0.02;85.32
57234;BME280;43090;52.604;13.318;2023-01-28T07:31:20;102253.16;;;-0.02;85.13
57234;BME280;43090;52.604;13.318;2023-01-28T07:33:46;102278.50;;;0.36;86.19
57234;BME280;43090;52.604;13.318;2023-01-28T07:36:13;102261.88;;;0.12;87.41
57234;BME280;43090;52.604;13.318;2023-01-28T07:38:39;102268.03;;;0.18;87.53
57234;BME280;43090;52.604;13.318;2023-01-28T07:41:05;102266.25;;;0.24;87.80
57234;BME280;43090;52.604;13.318;2023-01-28T07:43:32;102282.03;;;0.20;89.42
57234;BME280;43090;52.604;13.318;2023-01-28T07:45:59;102255.75;;;0.15;90.18
57234;BME280;43090;52.604;13.318;2023-01-28T07:48:27;102272.38;;;0.28;90.93
57234;BME280;43090;52.604;13.318;2023-01-28T07:50:57;102278.50;;;0.36;89.23
57234;BME280;43090;52.604;13.318;2023-01-28T07:53:24;102218.91;;;-0.01;90.14
57234;BME280;43090;52.604;13.318;2023-01-28T07:55:50;102286.38;;;0.38;87.10
57234;BME280;43090;52.604;13.318;2023-01-28T07:58:17;102244.31;;;0.11;87.15
57234;BME280;43090;52.604;13.318;2023-01-28T08:00:43;102275.00;;;0.37;81.95
57234;BME280;43090;52.604;13.318;2023-01-28T08:03:12;102290.78;;;0.39;84.18
57234;BME280;43090;52.604;13.318;2023-01-28T08:05:45;102289.84;;;0.52;85.03
57234;BME280;43090;52.604;13.318;2023-01-28T08:08:12;102266.09;;;0.57;83.61
57234;BME280;43090;52.604;13.318;2023-01-28T08:10:39;102260.88;;;0.49;84.17
57234;BME280;43090;52.604;13.318;2023-01-28T08:13:06;102271.38;;;0.57;84.72
57234;BME280;43090;52.604;13.318;2023-01-28T08:15:33;102283.44;;;0.96;84.13
57234;BME280;43090;52.604;13.318;2023-01-28T08:18:01;102293.22;;;0.80;84.01
57234;BME280;43090;52.604;13.318;2023-01-28T08:20:29;102282.78;;;0.59;85.44
57234;BME280;43090;52.604;13.318;2023-01-28T08:25:34;102266.00;;;0.77;85.34
57234;BME280;43090;52.604;13.318;2023-01-28T08:28:02;102290.56;;;0.85;84.49
57234;BME280;43090;52.604;13.318;2023-01-28T08:30:28;102307.19;;;0.99;84.00
57234;BME280;43090;52.604;13.318;2023-01-28T08:32:55;102315.00;;;1.16;83.51
57234;BME280;43090;52.604;13.318;2023-01-28T08:35:24;102304.66;;;0.81;84.12
57234;BME280;43090;52.604;13.318;2023-01-28T08:37:51;102318.63;;;0.98;84.26
57234;BME280;43090;52.604;13.318;2023-01-28T08:40:18;102293.06;;;1.05;83.88
57234;BME280;43090;52.604;13.318;2023-01-28T08:42:49;102294.09;;;0.81;84.49
57234;BME280;43090;52.604;13.318;2023-01-28T08:45:16;102283.44;;;0.96;83.24
57234;BME280;43090;52.604;13.318;2023-01-28T08:50:21;102314.09;;;1.17;82.58
57234;BME280;43090;52.604;13.318;2023-01-28T08:52:53;102321.19;;;1.09;80.96
57234;BME280;43090;52.604;13.318;2023-01-28T08:55:19;102312.38;;;1.13;81.03
57234;BME280;43090;52.604;13.318;2023-01-28T08:57:46;102327.28;;;1.22;81.21
57234;BME280;43090;52.604;13.318;2023-01-28T09:00:13;102293.16;;;0.91;81.69
57234;BME280;43090;52.604;13.318;2023-01-28T09:02:40;102321.81;;;1.44;81.07
57234;BME280;43090;52.604;13.318;2023-01-28T09:05:07;102320.06;;;1.47;81.82
57234;BME280;43090;52.604;13.318;2023-01-28T09:07:34;102326.25;;;1.40;81.98
57234;BME280;43090;52.604;13.318;2023-01-28T09:10:01;102340.22;;;1.58;81.80
57234;BME280;43090;52.604;13.318;2023-01-28T09:12:28;102319.19;;;1.44;80.86
57234;BME280;43090;52.604;13.318;2023-01-28T09:14:54;102340.31;;;1.42;79.91
57234;BME280;43090;52.604;13.318;2023-01-28T09:17:21;102333.41;;;1.24;81.37
57234;BME280;43090;52.604;13.318;2023-01-28T09:19:47;102342.88;;;1.56;80.67
57234;BME280;43090;52.604;13.318;2023-01-28T09:22:14;102349.03;;;1.55;76.87
57234;BME280;43090;52.604;13.318;2023-01-28T09:24:41;102354.41;;;1.41;72.41
57234;BME280;43090;52.604;13.318;2023-01-28T09:27:07;102345.50;;;1.55;74.24
57234;BME280;43090;52.604;13.318;2023-01-28T09:29:34;102348.06;;;1.64;73.92
57234;BME280;43090;52.604;13.318;2023-01-28T09:32:01;102353.41;;;1.58;72.41
57234;BME280;43090;52.604;13.318;2023-01-28T09:34:27;102355.19;;;1.54;72.27
57234;BME280;43090;52.604;13.318;2023-01-28T09:36:54;102360.22;;;1.83;73.85
57234;BME280;43090;52.604;13.318;2023-01-28T09:39:20;102362.94;;;1.76;73.41
57234;BME280;43090;52.604;13.318;2023-01-28T09:44:34;102351.66;;;1.57;70.65
57234;BME280;43090;52.604;13.318;2023-01-28T09:47:11;102362.09;;;1.72;72.03
57234;BME280;43090;52.604;13.318;2023-01-28T09:49:46;102368.28;;;1.71;71.55
57234;BME280;43090;52.604;13.318;2023-01-28T09:52:17;102353.16;;;1.89;70.61
57234;BME280;43090;52.604;13.318;2023-01-28T09:54:51;102364.88;;;1.52;72.00
57234;BME280;43090;52.604;13.318;2023-01-28T09:57:36;102376.47;;;1.29;70.70
57234;BME280;43090;52.604;13.318;2023-01-28T10:00:14;102340.22;;;1.55;69.33
57234;BME280;43090;52.604;13.318;2023-01-28T10:08:06;102370.03;;;1.69;70.86
57234;BME280;43090;52.604;13.318;2023-01-28T10:10:43;102340.84;;;1.89;69.68
57234;BME280;43090;52.604;13.318;2023-01-28T10:13:20;102350.81;;;1.50;67.54
57234;BME280;43090;52.604;13.318;2023-01-28T10:16:04;102361.94;;;1.92;68.15
57234;BME280;43090;52.604;13.318;2023-01-28T10:18:41;102349.47;;;2.04;67.60
57234;BME280;43090;52.604;13.318;2023-01-28T10:24:19;102356.59;;;1.98;64.13
57234;BME280;43090;52.604;13.318;2023-01-28T10:26:51;102347.66;;;2.12;64.33
57234;BME280;43090;52.604;13.318;2023-01-28T10:29:21;102346.94;;;1.96;63.28
57234;BME280;43090;52.604;13.318;2023-01-28T10:31:54;102354.69;;;2.11;63.21
57234;BME280;43090;52.604;13.318;2023-01-28T10:34:24;102339.13;;;1.82;63.37
57234;BME280;43090;52.604;13.318;2023-01-28T10:36:51;102326.03;;;1.71;64.45
57234;BME280;43090;52.604;13.318;2023-01-28T10:39:19;102358.13;;;2.23;65.77
57234;BME280;43090;52.604;13.318;2023-01-28T10:41:47;102354.84;;;1.94;67.69
57234;BME280;43090;52.604;13.318;2023-01-28T10:44:37;102337.25;;;1.96;67.59
57234;BME280;43090;52.604;13.318;2023-01-28T10:47:11;102348.97;;;1.64;67.85
57234;BME280;43090;52.604;13.318;2023-01-28T10:49:43;102341.72;;;1.85;70.54
57234;BME280;43090;52.604;13.318;2023-01-28T10:52:13;102342.63;;;1.86;71.74
57234;BME280;43090;52.604;13.318;2023-01-28T10:54:39;102343.00;;;1.38;70.61
57234;BME280;43090;52.604;13.318;2023-01-28T10:57:12;102341.91;;;1.68;68.98
57234;BME280;43090;52.604;13.318;2023-01-28T10:59:40;102327.63;;;1.89;71.13
57234;BME280;43090;52.604;13.318;2023-01-28T11:02:27;102348.00;;;1.75;72.35
57234;BME280;43090;52.604;13.318;2023-01-28T11:07:32;102344.69;;;1.45;69.82
57234;BME280;43090;52.604;13.318;2023-01-28T11:09:59;102346.16;;;1.80;68.47
57234;BME280;43090;52.604;13.318;2023-01-28T11:12:28;102338.66;;;1.29;70.75
57234;BME280;43090;52.604;13.318;2023-01-28T11:14:56;102316.47;;;1.56;70.69
57234;BME280;43090;52.604;13.318;2023-01-28T11:17:31;102343.44;;;1.92;71.22
57234;BME280;43090;52.604;13.318;2023-01-28T11:20:08;102324.56;;;1.33;72.96
57234;BME280;43090;52.604;13.318;2023-01-28T11:22:36;102333.34;;;1.33;73.60
57234;BME280;43090;52.604;13.318;2023-01-28T11:25:17;102335.75;;;1.64;71.79
57234;BME280;43090;52.604;13.318;2023-01-28T11:27:49;102320.06;;;1.43;71.63
57234;BME280;43090;52.604;13.318;2023-01-28T11:30:23;102336.69;;;1.57;71.91
57234;BME280;43090;52.604;13.318;2023-01-28T11:33:01;102305.25;;;1.25;73.27
57234;BME280;43090;52.604;13.318;2023-01-28T11:35:30;102300.75;;;1.36;72.60
57234;BME280;43090;52.604;13.318;2023-01-28T11:37:58;102322.56;;;1.64;71.47
57234;BME280;43090;52.604;13.318;2023-01-28T11:40:25;102289.22;;;1.48;70.71
57234;BME280;43090;52.604;13.318;2023-01-28T11:42:53;102306.22;;;1.10;69.55
57234;BME280;43090;52.604;13.318;2023-01-28T11:48:48;102303.25;;;1.55;70.00
57234;BME280;43090;52.604;13.318;2023-01-28T11:56:57;102301.47;;;1.60;68.32
57234;BME280;43090;52.604;13.318;2023-01-28T11:59:36;102305.91;;;1.55;72.66
57234;BME280;43090;52.604;13.318;2023-01-28T12:02:29;102298.78;;;1.64;72.91
57234;BME280;43090;52.604;13.318;2023-01-28T12:07:36;102297.91;;;1.65;71.77
57234;BME280;43090;52.604;13.318;2023-01-28T12:13:24;102282.00;;;1.70;73.75
57234;BME280;43090;52.604;13.318;2023-01-28T12:15:57;102301.00;;;2.11;72.12
57234;BME280;43090;52.604;13.318;2023-01-28T12:22:01;102295.28;;;1.65;73.47
57234;BME280;43090;52.604;13.318;2023-01-28T12:24:44;102289.81;;;1.84;72.64
57234;BME280;43090;52.604;13.318;2023-01-28T12:27:58;102285.78;;;1.44;72.88
57234;BME280;43090;52.604;13.318;2023-01-28T12:30:54;102286.69;;;1.37;73.12
57234;BME280;43090;52.604;13.318;2023-01-28T12:33:36;102291.88;;;1.51;72.55
57234;BME280;43090;52.604;13.318;2023-01-28T12:36:18;102270.72;;;1.53;72.50
57234;BME280;43090;52.604;13.318;2023-01-28T12:41:48;102281.34;;;1.45;72.52
57234;BME280;43090;52.604;13.318;2023-01-28T12:44:24;102275.13;;;1.50;72.20
57234;BME280;43090;52.604;13.318;2023-01-28T12:46:58;102275.28;;;1.37;73.16
57234;BME280;43090;52.604;13.318;2023-01-28T12:52:01;102289.13;;;1.62;71.79
57234;BME280;43090;52.604;13.318;2023-01-28T12:57:23;102269.34;;;1.04;71.36
57234;BME280;43090;52.604;13.318;2023-01-28T13:05:33;102257.75;;;1.26;71.58
57234;BME280;43090;52.604;13.318;2023-01-28T13:08:07;102220.03;;;1.16;70.92
57234;BME280;43090;52.604;13.318;2023-01-28T13:10:42;102240.84;;;1.49;69.75
57234;BME280;43090;52.604;13.318;2023-01-28T13:13:19;102217.94;;;1.49;71.13
57234;BME280;43090;52.604;13.318;2023-01-28T13:15:48;102216.19;;;1.50;70.68
57234;BME280;43090;52.604;13.318;2023-01-28T13:18:29;102249.63;;;1.53;69.85
57234;BME280;43090;52.604;13.318;2023-01-28T13:20:58;102220.81;;;1.26;69.44
57234;BME280;43090;52.604;13.318;2023-01-28T13:23:35;102245.31;;;1.41;68.76
57234;BME280;43090;52.604;13.318;2023-01-28T13:26:51;102246.06;;;1.55;66.81
57234;BME280;43090;52.604;13.318;2023-01-28T13:31:52;102220.66;;;1.45;65.54
57234;BME280;43090;52.604;13.318;2023-01-28T13:34:37;102232.75;;;1.67;65.12
57234;BME280;43090;52.604;13.318;2023-01-28T13:37:23;102208.22;;;1.58;68.70
57234;BME280;43090;52.604;13.318;2023-01-28T13:40:02;102225.94;;;1.43;68.40
57234;BME280;43090;52.604;13.318;2023-01-28T13:42:31;102230.41;;;1.33;70.32
57234;BME280;43090;52.604;13.318;2023-01-28T13:45:18;102238.91;;;1.70;68.12
57234;BME280;43090;52.604;13.318;2023-01-28T13:47:48;102229.97;;;1.83;70.12
57234;BME280;43090;52.604;13.318;2023-01-28T13:50:21;102206.13;;;1.88;69.29
57234;BME280;43090;52.604;13.318;2023-01-28T13:53:02;102216.66;;;1.91;65.50
57234;BME280;43090;52.604;13.318;2023-01-28T13:55:36;102220.53;;;1.57;65.57
57234;BME280;43090;52.604;13.318;2023-01-28T13:58:52;102227.25;;;1.91;64.78
57234;BME280;43090;52.604;13.318;2023-01-28T14:06:36;102221.56;;;1.41;67.14
57234;BME280;43090;52.604;13.318;2023-01-28T14:09:38;102212.44;;;1.73;67.10
57234;BME280;43090;52.604;13.318;2023-01-28T14:12:33;102220.44;;;1.65;66.56
57234;BME280;43090;52.604;13.318;2023-01-28T14:17:58;102208.25;;;1.53;63.64